sensor_id;sensor_type;location;lat;lon;timestamp;temperature;humidity
55329;DHT22;41205;44.264;19.884;2022-10-16T00:00:23;282.50;2278.40
55329;DHT22;41205;44.264;19.884;2022-10-16T00:02:48;307.20;2304.00
55329;DHT22;41205;44.264;19.884;2022-10-16T00:05:14;282.50;2278.40
55329;DHT22;41205;44.264;19.884;2022-10-16T00:07:39;307.20;2304.00
55329;DHT22;41205;44.264;19.884;2022-10-16T00:10:05;282.50;2278.40
55329;DHT22;41205;44.264;19.884;2022-10-16T00:12:31;282.40;2278.40
55329;DHT22;41205;44.264;19.884;2022-10-16T00:14:56;282.30;2278.40
55329;DHT22;41205;44.264;19.884;2022-10-16T00:17:22;282.50;2278.40
55329;DHT22;41205;44.264;19.884;2022-10-16T00:19:47;282.50;2278.40
55329;DHT22;41205;44.264;19.884;2022-10-16T00:22:13;282.40;2278.40
55329;DHT22;41205;44.264;19.884;2022-10-16T00:24:38;282.40;2278.40
55329;DHT22;41205;44.264;19.884;2022-10-16T00:27:04;282.40;2278.40
55329;DHT22;41205;44.264;19.884;2022-10-16T00:29:29;282.50;2278.40
55329;DHT22;41205;44.264;19.884;2022-10-16T00:31:55;282.50;2278.40
55329;DHT22;41205;44.264;19.884;2022-10-16T00:34:20;307.20;2304.00
55329;DHT22;41205;44.264;19.884;2022-10-16T00:36:46;307.30;2304.00
55329;DHT22;41205;44.264;19.884;2022-10-16T00:39:11;307.40;2304.00
55329;DHT22;41205;44.264;19.884;2022-10-16T00:41:37;307.40;2304.00
55329;DHT22;41205;44.264;19.884;2022-10-16T00:44:03;307.50;2304.00
55329;DHT22;41205;44.264;19.884;2022-10-16T00:46:48;307.50;2304.00
55329;DHT22;41205;44.264;19.884;2022-10-16T00:49:17;307.50;2304.00
55329;DHT22;41205;44.264;19.884;2022-10-16T00:51:47;307.20;2304.00
55329;DHT22;41205;44.264;19.884;2022-10-16T00:54:16;307.30;2304.00
55329;DHT22;41205;44.264;19.884;2022-10-16T00:56:43;307.40;2304.00
55329;DHT22;41205;44.264;19.884;2022-10-16T00:59:11;307.40;2304.00
55329;DHT22;41205;44.264;19.884;2022-10-16T01:01:39;307.50;2304.00
55329;DHT22;41205;44.264;19.884;2022-10-16T01:04:04;307.60;2304.00
55329;DHT22;41205;44.264;19.884;2022-10-16T01:14:22;307.60;2304.00
55329;DHT22;41205;44.264;19.884;2022-10-16T01:17:02;307.60;2304.00
55329;DHT22;41205;44.264;19.884;2022-10-16T01:22:01;307.40;2304.00
55329;DHT22;41205;44.264;19.884;2022-10-16T01:29:33;307.40;2304.00
55329;DHT22;41205;44.264;19.884;2022-10-16T01:32:00;307.30;2304.00
55329;DHT22;41205;44.264;19.884;2022-10-16T01:34:38;307.30;2304.00
55329;DHT22;41205;44.264;19.884;2022-10-16T01:37:07;307.20;2304.00
55329;DHT22;41205;44.264;19.884;2022-10-16T01:39:35;307.20;2304.00
55329;DHT22;41205;44.264;19.884;2022-10-16T01:42:06;307.20;2304.00
55329;DHT22;41205;44.264;19.884;2022-10-16T01:44:33;307.30;2304.00
55329;DHT22;41205;44.264;19.884;2022-10-16T01:47:01;307.40;2304.00
55329;DHT22;41205;44.264;19.884;2022-10-16T01:49:28;307.40;2304.00
55329;DHT22;41205;44.264;19.884;2022-10-16T01:51:55;307.40;2304.00
55329;DHT22;41205;44.264;19.884;2022-10-16T01:54:22;307.40;2304.00
55329;DHT22;41205;44.264;19.884;2022-10-16T01:56:48;307.50;2304.00
55329;DHT22;41205;44.264;19.884;2022-10-16T01:59:21;307.50;2304.00
55329;DHT22;41205;44.264;19.884;2022-10-16T02:01:50;307.40;2304.00
55329;DHT22;41205;44.264;19.884;2022-10-16T02:04:22;307.30;2304.00
55329;DHT22;41205;44.264;19.884;2022-10-16T02:06:49;307.50;2304.00
55329;DHT22;41205;44.264;19.884;2022-10-16T02:09:15;307.40;2304.00
55329;DHT22;41205;44.264;19.884;2022-10-16T02:11:42;307.50;2304.00
55329;DHT22;41205;44.264;19.884;2022-10-16T02:14:08;307.40;2304.00
55329;DHT22;41205;44.264;19.884;2022-10-16T02:16:44;307.30;2304.00
55329;DHT22;41205;44.264;19.884;2022-10-16T02:19:09;307.40;2304.00
55329;DHT22;41205;44.264;19.884;2022-10-16T02:26:41;307.40;2304.00
55329;DHT22;41205;44.264;19.884;2022-10-16T02:29:09;307.20;2304.00
55329;DHT22;41205;44.264;19.884;2022-10-16T02:31:35;307.20;2304.00
55329;DHT22;41205;44.264;19.884;2022-10-16T02:34:02;307.20;2304.00
55329;DHT22;41205;44.264;19.884;2022-10-16T02:36:30;307.20;2304.00
55329;DHT22;41205;44.264;19.884;2022-10-16T02:38:56;307.30;2304.00
55329;DHT22;41205;44.264;19.884;2022-10-16T02:41:22;282.50;2278.40
55329;DHT22;41205;44.264;19.884;2022-10-16T02:43:48;282.50;2278.40
55329;DHT22;41205;44.264;19.884;2022-10-16T02:46:14;282.50;2278.40
55329;DHT22;41205;44.264;19.884;2022-10-16T02:48:40;282.30;2278.40
55329;DHT22;41205;44.264;19.884;2022-10-16T02:51:06;282.30;2278.40
55329;DHT22;41205;44.264;19.884;2022-10-16T02:53:31;282.40;2278.40
55329;DHT22;41205;44.264;19.884;2022-10-16T02:55:57;282.30;2278.40
55329;DHT22;41205;44.264;19.884;2022-10-16T02:58:22;282.30;2278.40
55329;DHT22;41205;44.264;19.884;2022-10-16T03:00:48;282.30;2278.40
55329;DHT22;41205;44.264;19.884;2022-10-16T03:03:13;282.20;2278.40
55329;DHT22;41205;44.264;19.884;2022-10-16T03:05:39;282.10;2278.40
55329;DHT22;41205;44.264;19.884;2022-10-16T03:08:04;282.00;2278.40
55329;DHT22;41205;44.264;19.884;2022-10-16T03:10:30;282.00;2278.40
55329;DHT22;41205;44.264;19.884;2022-10-16T03:12:56;282.00;2278.40
55329;DHT22;41205;44.264;19.884;2022-10-16T03:15:21;282.00;2278.40
55329;DHT22;41205;44.264;19.884;2022-10-16T03:17:47;282.00;2278.40
55329;DHT22;41205;44.264;19.884;2022-10-16T03:20:12;282.00;2278.40
55329;DHT22;41205;44.264;19.884;2022-10-16T03:22:38;282.00;2278.40
55329;DHT22;41205;44.264;19.884;2022-10-16T03:25:04;281.90;2278.40
55329;DHT22;41205;44.264;19.884;2022-10-16T03:27:29;282.00;2278.40
55329;DHT22;41205;44.264;19.884;2022-10-16T03:29:55;281.90;2278.40
55329;DHT22;41205;44.264;19.884;2022-10-16T03:32:20;282.00;2278.40
55329;DHT22;41205;44.264;19.884;2022-10-16T03:34:46;281.90;2278.40
55329;DHT22;41205;44.264;19.884;2022-10-16T03:37:12;281.90;2278.40
55329;DHT22;41205;44.264;19.884;2022-10-16T03:39:38;281.90;2278.40
55329;DHT22;41205;44.264;19.884;2022-10-16T03:42:03;281.90;2278.40
55329;DHT22;41205;44.264;19.884;2022-10-16T03:44:29;281.90;2278.40
55329;DHT22;41205;44.264;19.884;2022-10-16T03:46:55;281.80;2278.40
55329;DHT22;41205;44.264;19.884;2022-10-16T03:49:20;281.80;2278.40
55329;DHT22;41205;44.264;19.884;2022-10-16T03:51:46;281.70;2278.40
55329;DHT22;41205;44.264;19.884;2022-10-16T03:54:11;281.70;2278.40
55329;DHT22;41205;44.264;19.884;2022-10-16T03:56:37;281.70;2278.40
55329;DHT22;41205;44.264;19.884;2022-10-16T03:59:03;281.70;2278.40
55329;DHT22;41205;44.264;19.884;2022-10-16T04:01:28;281.70;2278.40
55329;DHT22;41205;44.264;19.884;2022-10-16T04:03:54;281.60;2278.40
55329;DHT22;41205;44.264;19.884;2022-10-16T04:06:19;281.90;2278.40
55329;DHT22;41205;44.264;19.884;2022-10-16T04:08:45;281.60;2278.40
55329;DHT22;41205;44.264;19.884;2022-10-16T04:11:10;281.60;2278.40
55329;DHT22;41205;44.264;19.884;2022-10-16T04:13:36;256.90;2252.80
55329;DHT22;41205;44.264;19.884;2022-10-16T04:16:02;281.60;2278.40
55329;DHT22;41205;44.264;19.884;2022-10-16T04:18:27;281.60;2278.40
55329;DHT22;41205;44.264;19.884;2022-10-16T04:20:53;281.70;2278.40
55329;DHT22;41205;44.264;19.884;2022-10-16T04:23:19;281.70;2278.40
55329;DHT22;41205;44.264;19.884;2022-10-16T04:25:44;281.70;2278.40
55329;DHT22;41205;44.264;19.884;2022-10-16T04:28:10;281.60;2278.40
55329;DHT22;41205;44.264;19.884;2022-10-16T04:30:37;281.60;2278.40
55329;DHT22;41205;44.264;19.884;2022-10-16T04:33:03;281.60;2278.40
55329;DHT22;41205;44.264;19.884;2022-10-16T04:35:28;256.90;2252.80
55329;DHT22;41205;44.264;19.884;2022-10-16T04:37:54;256.80;2252.80
55329;DHT22;41205;44.264;19.884;2022-10-16T04:40:19;256.70;2252.80
55329;DHT22;41205;44.264;19.884;2022-10-16T04:42:45;256.70;2252.80
55329;DHT22;41205;44.264;19.884;2022-10-16T04:45:10;256.70;2252.80
55329;DHT22;41205;44.264;19.884;2022-10-16T04:47:36;256.70;2252.80
55329;DHT22;41205;44.264;19.884;2022-10-16T04:50:02;256.80;2252.80
55329;DHT22;41205;44.264;19.884;2022-10-16T04:52:27;256.80;2252.80
55329;DHT22;41205;44.264;19.884;2022-10-16T04:54:53;256.80;2252.80
55329;DHT22;41205;44.264;19.884;2022-10-16T04:57:19;256.80;2252.80
55329;DHT22;41205;44.264;19.884;2022-10-16T04:59:45;256.80;2252.80
55329;DHT22;41205;44.264;19.884;2022-10-16T05:02:10;256.80;2252.80
55329;DHT22;41205;44.264;19.884;2022-10-16T05:04:36;256.90;2252.80
55329;DHT22;41205;44.264;19.884;2022-10-16T05:07:01;256.90;2252.80
55329;DHT22;41205;44.264;19.884;2022-10-16T05:09:27;256.90;2252.80
55329;DHT22;41205;44.264;19.884;2022-10-16T05:11:52;256.90;2252.80
55329;DHT22;41205;44.264;19.884;2022-10-16T05:14:18;281.60;2278.40
55329;DHT22;41205;44.264;19.884;2022-10-16T05:16:43;281.70;2278.40
55329;DHT22;41205;44.264;19.884;2022-10-16T05:19:09;281.60;2278.40
55329;DHT22;41205;44.264;19.884;2022-10-16T05:21:35;281.70;2278.40
55329;DHT22;41205;44.264;19.884;2022-10-16T05:24:01;281.70;2278.40
55329;DHT22;41205;44.264;19.884;2022-10-16T05:26:26;281.70;2278.40
55329;DHT22;41205;44.264;19.884;2022-10-16T05:28:52;281.70;2278.40
55329;DHT22;41205;44.264;19.884;2022-10-16T05:31:17;281.60;2278.40
55329;DHT22;41205;44.264;19.884;2022-10-16T05:33:43;281.70;2278.40
55329;DHT22;41205;44.264;19.884;2022-10-16T05:36:09;281.90;2278.40
55329;DHT22;41205;44.264;19.884;2022-10-16T05:38:35;281.90;2278.40
55329;DHT22;41205;44.264;19.884;2022-10-16T05:41:01;282.00;2278.40
55329;DHT22;41205;44.264;19.884;2022-10-16T05:43:27;282.10;2278.40
55329;DHT22;41205;44.264;19.884;2022-10-16T05:45:53;282.20;2278.40
55329;DHT22;41205;44.264;19.884;2022-10-16T05:48:18;282.30;2278.40
55329;DHT22;41205;44.264;19.884;2022-10-16T05:50:44;282.30;2278.40
55329;DHT22;41205;44.264;19.884;2022-10-16T05:53:10;282.30;2278.40
55329;DHT22;41205;44.264;19.884;2022-10-16T05:55:35;282.40;2278.40
55329;DHT22;41205;44.264;19.884;2022-10-16T05:58:01;282.50;2278.40
55329;DHT22;41205;44.264;19.884;2022-10-16T06:00:26;282.50;2278.40
55329;DHT22;41205;44.264;19.884;2022-10-16T06:02:52;282.50;2278.40
55329;DHT22;41205;44.264;19.884;2022-10-16T06:05:18;282.50;2278.40
55329;DHT22;41205;44.264;19.884;2022-10-16T06:07:44;307.30;2304.00
55329;DHT22;41205;44.264;19.884;2022-10-16T06:10:09;307.30;2304.00
55329;DHT22;41205;44.264;19.884;2022-10-16T06:12:35;307.30;2304.00
55329;DHT22;41205;44.264;19.884;2022-10-16T06:15:00;307.50;2304.00
55329;DHT22;41205;44.264;19.884;2022-10-16T06:17:26;307.60;2304.00
55329;DHT22;41205;44.264;19.884;2022-10-16T06:19:51;307.80;2304.00
55329;DHT22;41205;44.264;19.884;2022-10-16T06:22:17;332.80;2329.60
55329;DHT22;41205;44.264;19.884;2022-10-16T06:24:42;333.00;2329.60
55329;DHT22;41205;44.264;19.884;2022-10-16T06:27:08;333.20;2329.60
55329;DHT22;41205;44.264;19.884;2022-10-16T06:29:34;333.10;2329.60
55329;DHT22;41205;44.264;19.884;2022-10-16T06:31:59;333.00;2329.60
55329;DHT22;41205;44.264;19.884;2022-10-16T06:34:25;333.10;2329.60
55329;DHT22;41205;44.264;19.884;2022-10-16T06:36:50;333.20;2329.60
55329;DHT22;41205;44.264;19.884;2022-10-16T06:39:16;333.30;2329.60
55329;DHT22;41205;44.264;19.884;2022-10-16T06:41:41;333.30;2329.60
55329;DHT22;41205;44.264;19.884;2022-10-16T06:44:07;333.40;2329.60
55329;DHT22;41205;44.264;19.884;2022-10-16T06:46:33;333.40;2329.60
55329;DHT22;41205;44.264;19.884;2022-10-16T06:48:58;333.40;2329.60
55329;DHT22;41205;44.264;19.884;2022-10-16T06:51:24;333.50;2329.60
55329;DHT22;41205;44.264;19.884;2022-10-16T06:53:54;333.40;2329.60
55329;DHT22;41205;44.264;19.884;2022-10-16T06:56:20;333.50;2329.60
55329;DHT22;41205;44.264;19.884;2022-10-16T06:58:46;333.40;2329.60
55329;DHT22;41205;44.264;19.884;2022-10-16T07:01:12;333.50;2329.60
55329;DHT22;41205;44.264;19.884;2022-10-16T07:03:38;333.70;2329.60
55329;DHT22;41205;44.264;19.884;2022-10-16T07:06:04;358.50;2329.60
55329;DHT22;41205;44.264;19.884;2022-10-16T07:08:30;384.30;2329.60
55329;DHT22;41205;44.264;19.884;2022-10-16T07:11:03;460.80;2380.80
55329;DHT22;41205;44.264;19.884;2022-10-16T07:13:29;487.10;2380.80
55329;DHT22;41205;44.264;19.884;2022-10-16T07:15:55;537.60;2304.00
55329;DHT22;41205;44.264;19.884;2022-10-16T07:18:20;564.00;2176.00
55329;DHT22;41205;44.264;19.884;2022-10-16T07:20:47;589.20;1996.80
55329;DHT22;41205;44.264;19.884;2022-10-16T07:23:12;614.60;1894.40
55329;DHT22;41205;44.264;19.884;2022-10-16T07:25:38;640.00;1817.60
55329;DHT22;41205;44.264;19.884;2022-10-16T07:28:03;614.80;1817.60
55329;DHT22;41205;44.264;19.884;2022-10-16T07:30:29;615.20;1792.00
55329;DHT22;41205;44.264;19.884;2022-10-16T07:32:54;640.20;1715.20
55329;DHT22;41205;44.264;19.884;2022-10-16T07:35:20;640.40;1715.20
55329;DHT22;41205;44.264;19.884;2022-10-16T07:37:46;665.60;1689.60
55329;DHT22;41205;44.264;19.884;2022-10-16T07:40:11;666.20;1664.00
55329;DHT22;41205;44.264;19.884;2022-10-16T07:42:37;665.90;1664.00
55329;DHT22;41205;44.264;19.884;2022-10-16T07:45:02;691.70;1638.40
55329;DHT22;41205;44.264;19.884;2022-10-16T07:47:28;691.60;1587.20
55329;DHT22;41205;44.264;19.884;2022-10-16T07:49:54;691.60;1587.20
55329;DHT22;41205;44.264;19.884;2022-10-16T07:52:19;691.70;1587.20
55329;DHT22;41205;44.264;19.884;2022-10-16T07:54:45;691.70;1587.20
55329;DHT22;41205;44.264;19.884;2022-10-16T07:57:10;716.90;1561.60
55329;DHT22;41205;44.264;19.884;2022-10-16T07:59:36;742.60;1510.40
55329;DHT22;41205;44.264;19.884;2022-10-16T08:02:01;717.40;1484.80
55329;DHT22;41205;44.264;19.884;2022-10-16T08:04:27;743.00;1459.20
55329;DHT22;41205;44.264;19.884;2022-10-16T08:06:52;743.10;1408.00
55329;DHT22;41205;44.264;19.884;2022-10-16T08:09:19;742.90;1433.60
55329;DHT22;41205;44.264;19.884;2022-10-16T08:11:45;743.20;1433.60
55329;DHT22;41205;44.264;19.884;2022-10-16T08:14:10;742.90;1459.20
55329;DHT22;41205;44.264;19.884;2022-10-16T08:16:36;717.60;1459.20
55329;DHT22;41205;44.264;19.884;2022-10-16T08:19:01;743.20;1433.60
55329;DHT22;41205;44.264;19.884;2022-10-16T08:21:27;742.40;1484.80
55329;DHT22;41205;44.264;19.884;2022-10-16T08:23:53;717.40;1459.20
55329;DHT22;41205;44.264;19.884;2022-10-16T08:26:20;717.20;1484.80
55329;DHT22;41205;44.264;19.884;2022-10-16T08:28:45;743.00;1408.00
55329;DHT22;41205;44.264;19.884;2022-10-16T08:31:12;768.10;1408.00
55329;DHT22;41205;44.264;19.884;2022-10-16T08:33:38;768.30;1382.40
55329;DHT22;41205;44.264;19.884;2022-10-16T08:36:05;768.00;1433.60
55329;DHT22;41205;44.264;19.884;2022-10-16T08:38:30;743.00;1433.60
55329;DHT22;41205;44.264;19.884;2022-10-16T08:40:58;794.50;1356.80
55329;DHT22;41205;44.264;19.884;2022-10-16T08:48:34;794.10;1356.80
55329;DHT22;41205;44.264;19.884;2022-10-16T08:51:01;793.80;1356.80
55329;DHT22;41205;44.264;19.884;2022-10-16T08:53:50;793.60;1356.80
55329;DHT22;41205;44.264;19.884;2022-10-16T08:56:13;768.70;1382.40
55329;DHT22;41205;44.264;19.884;2022-10-16T08:58:39;768.20;1382.40
55329;DHT22;41205;44.264;19.884;2022-10-16T09:01:10;742.90;1433.60
55329;DHT22;41205;44.264;19.884;2022-10-16T09:09:09;742.80;1459.20
55329;DHT22;41205;44.264;19.884;2022-10-16T09:14:11;665.70;1561.60
55329;DHT22;41205;44.264;19.884;2022-10-16T09:16:43;640.60;1561.60
55329;DHT22;41205;44.264;19.884;2022-10-16T09:19:14;640.30;1561.60
55329;DHT22;41205;44.264;19.884;2022-10-16T09:21:43;640.00;1587.20
55329;DHT22;41205;44.264;19.884;2022-10-16T09:24:14;614.90;1638.40
55329;DHT22;41205;44.264;19.884;2022-10-16T09:26:40;615.10;1638.40
55329;DHT22;41205;44.264;19.884;2022-10-16T09:29:06;614.50;1715.20
55329;DHT22;41205;44.264;19.884;2022-10-16T09:31:31;589.70;1715.20
55329;DHT22;41205;44.264;19.884;2022-10-16T09:34:00;614.40;1715.20
55329;DHT22;41205;44.264;19.884;2022-10-16T09:36:33;589.50;1740.80
55329;DHT22;41205;44.264;19.884;2022-10-16T09:39:07;589.20;1740.80
55329;DHT22;41205;44.264;19.884;2022-10-16T09:41:37;589.10;1766.40
55329;DHT22;41205;44.264;19.884;2022-10-16T09:44:03;564.00;1817.60
55329;DHT22;41205;44.264;19.884;2022-10-16T09:46:31;564.10;1817.60
55329;DHT22;41205;44.264;19.884;2022-10-16T09:48:58;589.10;1792.00
55329;DHT22;41205;44.264;19.884;2022-10-16T09:51:26;564.00;1792.00
55329;DHT22;41205;44.264;19.884;2022-10-16T09:53:56;563.80;1792.00
55329;DHT22;41205;44.264;19.884;2022-10-16T09:56:23;563.80;1792.00
55329;DHT22;41205;44.264;19.884;2022-10-16T09:58:50;564.00;1766.40
55329;DHT22;41205;44.264;19.884;2022-10-16T10:01:16;563.90;1740.80
55329;DHT22;41205;44.264;19.884;2022-10-16T10:03:42;563.80;1740.80
55329;DHT22;41205;44.264;19.884;2022-10-16T10:06:16;563.80;1766.40
55329;DHT22;41205;44.264;19.884;2022-10-16T10:08:52;563.80;1792.00
55329;DHT22;41205;44.264;19.884;2022-10-16T10:11:18;563.80;1792.00
55329;DHT22;41205;44.264;19.884;2022-10-16T10:13:44;563.50;1792.00
55329;DHT22;41205;44.264;19.884;2022-10-16T10:16:09;563.60;1792.00
55329;DHT22;41205;44.264;19.884;2022-10-16T10:18:35;563.50;1792.00
55329;DHT22;41205;44.264;19.884;2022-10-16T10:21:01;563.60;1792.00
55329;DHT22;41205;44.264;19.884;2022-10-16T10:23:27;563.60;1817.60
55329;DHT22;41205;44.264;19.884;2022-10-16T10:33:21;563.80;1817.60
55329;DHT22;41205;44.264;19.884;2022-10-16T10:35:55;563.70;1817.60
55329;DHT22;41205;44.264;19.884;2022-10-16T10:38:44;563.60;1817.60
55329;DHT22;41205;44.264;19.884;2022-10-16T10:41:18;563.60;1817.60
55329;DHT22;41205;44.264;19.884;2022-10-16T10:46:35;563.70;1792.00
55329;DHT22;41205;44.264;19.884;2022-10-16T10:54:11;563.70;1766.40
55329;DHT22;41205;44.264;19.884;2022-10-16T11:06:54;563.70;1792.00
55329;DHT22;41205;44.264;19.884;2022-10-16T11:12:19;563.70;1792.00
55329;DHT22;41205;44.264;19.884;2022-10-16T11:14:49;563.80;1792.00
55329;DHT22;41205;44.264;19.884;2022-10-16T11:17:18;563.80;1766.40
55329;DHT22;41205;44.264;19.884;2022-10-16T11:22:17;563.80;1792.00
55329;DHT22;41205;44.264;19.884;2022-10-16T11:30:39;564.00;1792.00
55329;DHT22;41205;44.264;19.884;2022-10-16T11:35:36;563.80;1792.00
55329;DHT22;41205;44.264;19.884;2022-10-16T11:38:03;563.80;1792.00
55329;DHT22;41205;44.264;19.884;2022-10-16T11:40:35;563.80;1792.00
55329;DHT22;41205;44.264;19.884;2022-10-16T11:45:49;563.90;1766.40
55329;DHT22;41205;44.264;19.884;2022-10-16T11:53:28;564.00;1766.40
55329;DHT22;41205;44.264;19.884;2022-10-16T11:55:57;564.00;1792.00
55329;DHT22;41205;44.264;19.884;2022-10-16T11:58:24;563.90;1766.40
55329;DHT22;41205;44.264;19.884;2022-10-16T12:08:21;564.00;1792.00
55329;DHT22;41205;44.264;19.884;2022-10-16T12:10:47;564.00;1766.40
55329;DHT22;41205;44.264;19.884;2022-10-16T12:13:32;563.90;1740.80
55329;DHT22;41205;44.264;19.884;2022-10-16T12:16:05;563.90;1766.40
55329;DHT22;41205;44.264;19.884;2022-10-16T12:18:31;564.00;1740.80
55329;DHT22;41205;44.264;19.884;2022-10-16T12:20:57;564.00;1740.80
55329;DHT22;41205;44.264;19.884;2022-10-16T12:23:24;563.80;1715.20
55329;DHT22;41205;44.264;19.884;2022-10-16T12:25:57;563.70;1715.20
55329;DHT22;41205;44.264;19.884;2022-10-16T12:28:27;563.90;1740.80
55329;DHT22;41205;44.264;19.884;2022-10-16T12:30:57;564.00;1689.60
55329;DHT22;41205;44.264;19.884;2022-10-16T12:33:27;564.00;1689.60
55329;DHT22;41205;44.264;19.884;2022-10-16T12:35:53;564.10;1689.60
55329;DHT22;41205;44.264;19.884;2022-10-16T12:38:25;564.10;1715.20
55329;DHT22;41205;44.264;19.884;2022-10-16T12:40:56;564.10;1715.20
55329;DHT22;41205;44.264;19.884;2022-10-16T12:48:46;564.10;1689.60
55329;DHT22;41205;44.264;19.884;2022-10-16T12:51:33;588.80;1689.60
55329;DHT22;41205;44.264;19.884;2022-10-16T12:56:27;564.10;1715.20
55329;DHT22;41205;44.264;19.884;2022-10-16T13:03:53;564.10;1689.60
55329;DHT22;41205;44.264;19.884;2022-10-16T13:06:39;564.10;1689.60
55329;DHT22;41205;44.264;19.884;2022-10-16T13:20:16;564.10;1689.60
55329;DHT22;41205;44.264;19.884;2022-10-16T13:27:44;588.80;1715.20
55329;DHT22;41205;44.264;19.884;2022-10-16T13:30:13;588.90;1715.20
55329;DHT22;41205;44.264;19.884;2022-10-16T13:32:43;588.90;1715.20
55329;DHT22;41205;44.264;19.884;2022-10-16T13:35:18;588.80;1689.60
55329;DHT22;41205;44.264;19.884;2022-10-16T13:37:44;564.10;1715.20
55329;DHT22;41205;44.264;19.884;2022-10-16T13:40:27;588.90;1740.80
55329;DHT22;41205;44.264;19.884;2022-10-16T13:42:53;588.80;1715.20
55329;DHT22;41205;44.264;19.884;2022-10-16T13:45:20;564.10;1715.20
55329;DHT22;41205;44.264;19.884;2022-10-16T13:47:46;564.10;1715.20
55329;DHT22;41205;44.264;19.884;2022-10-16T13:50:12;564.10;1740.80
55329;DHT22;41205;44.264;19.884;2022-10-16T13:52:38;564.10;1740.80
55329;DHT22;41205;44.264;19.884;2022-10-16T13:55:13;564.10;1740.80
55329;DHT22;41205;44.264;19.884;2022-10-16T13:57:39;564.00;1740.80
55329;DHT22;41205;44.264;19.884;2022-10-16T14:00:18;564.00;1715.20
55329;DHT22;41205;44.264;19.884;2022-10-16T14:02:44;564.00;1715.20
55329;DHT22;41205;44.264;19.884;2022-10-16T14:05:09;564.00;1740.80
55329;DHT22;41205;44.264;19.884;2022-10-16T14:07:35;563.90;1740.80
55329;DHT22;41205;44.264;19.884;2022-10-16T14:10:05;563.80;1740.80
55329;DHT22;41205;44.264;19.884;2022-10-16T14:12:32;563.90;1740.80
55329;DHT22;41205;44.264;19.884;2022-10-16T14:14:58;563.90;1766.40
55329;DHT22;41205;44.264;19.884;2022-10-16T14:17:25;563.70;1766.40
55329;DHT22;41205;44.264;19.884;2022-10-16T14:19:52;563.90;1792.00
55329;DHT22;41205;44.264;19.884;2022-10-16T14:30:24;563.60;1817.60
55329;DHT22;41205;44.264;19.884;2022-10-16T14:32:53;563.60;1817.60
55329;DHT22;41205;44.264;19.884;2022-10-16T14:35:38;563.50;1843.20
55329;DHT22;41205;44.264;19.884;2022-10-16T14:38:04;563.50;1843.20
55329;DHT22;41205;44.264;19.884;2022-10-16T14:40:34;563.40;1843.20
55329;DHT22;41205;44.264;19.884;2022-10-16T14:43:00;563.40;1843.20
55329;DHT22;41205;44.264;19.884;2022-10-16T14:45:30;563.30;1868.80
55329;DHT22;41205;44.264;19.884;2022-10-16T14:47:57;563.30;1868.80
55329;DHT22;41205;44.264;19.884;2022-10-16T14:50:23;563.20;1868.80
55329;DHT22;41205;44.264;19.884;2022-10-16T14:52:49;563.20;1868.80
55329;DHT22;41205;44.264;19.884;2022-10-16T14:55:15;563.20;1868.80
55329;DHT22;41205;44.264;19.884;2022-10-16T14:57:40;563.20;1920.00
55329;DHT22;41205;44.264;19.884;2022-10-16T15:00:13;538.50;1868.80
55329;DHT22;41205;44.264;19.884;2022-10-16T15:02:40;538.50;1868.80
55329;DHT22;41205;44.264;19.884;2022-10-16T15:05:15;538.40;1894.40
55329;DHT22;41205;44.264;19.884;2022-10-16T15:07:40;538.40;1894.40
55329;DHT22;41205;44.264;19.884;2022-10-16T15:10:07;538.20;1894.40
55329;DHT22;41205;44.264;19.884;2022-10-16T15:12:32;538.10;1894.40
55329;DHT22;41205;44.264;19.884;2022-10-16T15:14:58;538.00;1920.00
55329;DHT22;41205;44.264;19.884;2022-10-16T15:17:25;537.90;1920.00
55329;DHT22;41205;44.264;19.884;2022-10-16T15:19:50;537.80;1945.60
55329;DHT22;41205;44.264;19.884;2022-10-16T15:22:16;537.60;1945.60
55329;DHT22;41205;44.264;19.884;2022-10-16T15:24:42;512.90;1945.60
55329;DHT22;41205;44.264;19.884;2022-10-16T15:27:08;512.90;1945.60
55329;DHT22;41205;44.264;19.884;2022-10-16T15:29:34;512.80;1971.20
55329;DHT22;41205;44.264;19.884;2022-10-16T15:31:59;512.60;1996.80
55329;DHT22;41205;44.264;19.884;2022-10-16T15:34:25;512.60;1996.80
55329;DHT22;41205;44.264;19.884;2022-10-16T15:36:50;512.50;1996.80
55329;DHT22;41205;44.264;19.884;2022-10-16T15:39:17;512.30;2022.40
55329;DHT22;41205;44.264;19.884;2022-10-16T15:41:44;512.30;2022.40
55329;DHT22;41205;44.264;19.884;2022-10-16T15:44:10;512.20;2048.00
55329;DHT22;41205;44.264;19.884;2022-10-16T15:46:35;512.10;2073.60
55329;DHT22;41205;44.264;19.884;2022-10-16T15:49:02;487.30;2073.60
55329;DHT22;41205;44.264;19.884;2022-10-16T15:51:28;487.30;2099.20
55329;DHT22;41205;44.264;19.884;2022-10-16T15:53:57;487.20;2099.20
55329;DHT22;41205;44.264;19.884;2022-10-16T15:56:24;487.10;2124.80
55329;DHT22;41205;44.264;19.884;2022-10-16T15:58:53;487.00;2124.80
55329;DHT22;41205;44.264;19.884;2022-10-16T16:01:19;487.00;2124.80
55329;DHT22;41205;44.264;19.884;2022-10-16T16:03:45;487.00;2150.40
55329;DHT22;41205;44.264;19.884;2022-10-16T16:06:11;486.90;2201.60
55329;DHT22;41205;44.264;19.884;2022-10-16T16:08:38;486.70;2252.80
55329;DHT22;41205;44.264;19.884;2022-10-16T16:11:12;486.40;2278.40
55329;DHT22;41205;44.264;19.884;2022-10-16T16:13:38;486.50;2355.20
55329;DHT22;41205;44.264;19.884;2022-10-16T16:16:11;461.70;2380.80
55329;DHT22;41205;44.264;19.884;2022-10-16T16:18:37;461.70;2380.80
55329;DHT22;41205;44.264;19.884;2022-10-16T16:21:03;461.60;2380.80
55329;DHT22;41205;44.264;19.884;2022-10-16T16:23:29;461.60;2380.80
55329;DHT22;41205;44.264;19.884;2022-10-16T16:26:08;461.50;2380.80
55329;DHT22;41205;44.264;19.884;2022-10-16T16:28:35;461.30;2380.80
55329;DHT22;41205;44.264;19.884;2022-10-16T16:31:01;461.30;2380.80
55329;DHT22;41205;44.264;19.884;2022-10-16T16:33:26;461.10;2380.80
55329;DHT22;41205;44.264;19.884;2022-10-16T16:35:55;461.10;2380.80
55329;DHT22;41205;44.264;19.884;2022-10-16T16:38:21;461.00;2380.80
55329;DHT22;41205;44.264;19.884;2022-10-16T16:40:46;461.00;2380.80